sensor_id;sensor_type;location;lat;lon;timestamp;P1;durP1;ratioP1;P2;durP2;ratioP2
1507;SDS011;745;48.586;10.032;2022-12-18T00:02:02;43.57;;;20.57;;
1507;SDS011;745;48.586;10.032;2022-12-18T00:06:34;44.30;;;22.60;;
1507;SDS011;745;48.586;10.032;2022-12-18T00:11:05;47.80;;;21.60;;
1507;SDS011;745;48.586;10.032;2022-12-18T00:15:37;47.13;;;22.47;;
1507;SDS011;745;48.586;10.032;2022-12-18T00:20:08;43.47;;;22.00;;
1507;SDS011;745;48.586;10.032;2022-12-18T00:24:39;51.43;;;22.30;;
1507;SDS011;745;48.586;10.032;2022-12-18T00:29:13;56.67;;;24.00;;
1507;SDS011;745;48.586;10.032;2022-12-18T00:33:46;51.27;;;24.03;;
1507;SDS011;745;48.586;10.032;2022-12-18T00:38:17;62.77;;;27.00;;
1507;SDS011;745;48.586;10.032;2022-12-18T00:42:47;50.30;;;23.17;;
1507;SDS011;745;48.586;10.032;2022-12-18T00:47:27;47.90;;;22.40;;
1507;SDS011;745;48.586;10.032;2022-12-18T00:51:57;36.67;;;19.70;;
1507;SDS011;745;48.586;10.032;2022-12-18T00:56:27;38.67;;;18.20;;
1507;SDS011;745;48.586;10.032;2022-12-18T01:00:58;40.80;;;19.33;;
1507;SDS011;745;48.586;10.032;2022-12-18T01:05:28;47.90;;;23.03;;
1507;SDS011;745;48.586;10.032;2022-12-18T01:09:58;45.23;;;21.63;;
1507;SDS011;745;48.586;10.032;2022-12-18T01:14:29;63.80;;;22.57;;
1507;SDS011;745;48.586;10.032;2022-12-18T01:18:59;45.13;;;19.97;;
1507;SDS011;745;48.586;10.032;2022-12-18T01:23:30;40.93;;;19.83;;
1507;SDS011;745;48.586;10.032;2022-12-18T01:28:00;45.43;;;19.63;;
1507;SDS011;745;48.586;10.032;2022-12-18T01:32:31;57.47;;;21.17;;
1507;SDS011;745;48.586;10.032;2022-12-18T01:37:03;37.57;;;19.53;;
1507;SDS011;745;48.586;10.032;2022-12-18T01:41:34;46.03;;;22.00;;
1507;SDS011;745;48.586;10.032;2022-12-18T01:46:23;48.00;;;22.03;;
1507;SDS011;745;48.586;10.032;2022-12-18T01:50:54;44.87;;;21.10;;
1507;SDS011;745;48.586;10.032;2022-12-18T01:55:26;49.13;;;22.83;;
1507;SDS011;745;48.586;10.032;2022-12-18T02:00:03;39.33;;;19.50;;
1507;SDS011;745;48.586;10.032;2022-12-18T02:04:35;51.43;;;22.23;;
1507;SDS011;745;48.586;10.032;2022-12-18T02:09:07;37.30;;;20.37;;
1507;SDS011;745;48.586;10.032;2022-12-18T02:13:53;48.90;;;22.93;;
1507;SDS011;745;48.586;10.032;2022-12-18T02:18:45;48.13;;;19.97;;
1507;SDS011;745;48.586;10.032;2022-12-18T02:28:23;43.93;;;19.63;;
1507;SDS011;745;48.586;10.032;2022-12-18T02:32:56;46.47;;;19.90;;
1507;SDS011;745;48.586;10.032;2022-12-18T02:37:28;49.73;;;22.70;;
1507;SDS011;745;48.586;10.032;2022-12-18T02:41:59;60.00;;;22.37;;
1507;SDS011;745;48.586;10.032;2022-12-18T02:46:33;51.23;;;22.30;;
1507;SDS011;745;48.586;10.032;2022-12-18T03:00:18;45.30;;;20.53;;
1507;SDS011;745;48.586;10.032;2022-12-18T03:05:08;56.20;;;23.60;;
1507;SDS011;745;48.586;10.032;2022-12-18T03:09:43;54.40;;;21.40;;
1507;SDS011;745;48.586;10.032;2022-12-18T03:14:16;46.80;;;19.57;;
1507;SDS011;745;48.586;10.032;2022-12-18T03:18:48;53.83;;;23.37;;
1507;SDS011;745;48.586;10.032;2022-12-18T03:23:23;56.77;;;26.57;;
1507;SDS011;745;48.586;10.032;2022-12-18T03:27:55;59.50;;;26.13;;
1507;SDS011;745;48.586;10.032;2022-12-18T03:32:29;57.13;;;25.70;;
1507;SDS011;745;48.586;10.032;2022-12-18T03:37:02;58.43;;;24.63;;
1507;SDS011;745;48.586;10.032;2022-12-18T03:51:02;54.00;;;25.07;;
1507;SDS011;745;48.586;10.032;2022-12-18T03:55:37;52.63;;;23.87;;
1507;SDS011;745;48.586;10.032;2022-12-18T04:00:11;63.80;;;24.47;;
1507;SDS011;745;48.586;10.032;2022-12-18T04:04:43;52.83;;;23.43;;
1507;SDS011;745;48.586;10.032;2022-12-18T04:09:14;60.93;;;25.90;;
1507;SDS011;745;48.586;10.032;2022-12-18T04:13:45;58.53;;;24.33;;
1507;SDS011;745;48.586;10.032;2022-12-18T04:18:15;70.80;;;27.60;;
1507;SDS011;745;48.586;10.032;2022-12-18T04:22:46;57.50;;;26.17;;
1507;SDS011;745;48.586;10.032;2022-12-18T04:27:17;54.43;;;23.77;;
1507;SDS011;745;48.586;10.032;2022-12-18T04:31:47;60.80;;;25.50;;
1507;SDS011;745;48.586;10.032;2022-12-18T04:36:18;62.23;;;25.90;;
1507;SDS011;745;48.586;10.032;2022-12-18T04:40:48;58.57;;;24.77;;
1507;SDS011;745;48.586;10.032;2022-12-18T04:45:19;66.87;;;24.60;;
1507;SDS011;745;48.586;10.032;2022-12-18T04:49:49;52.10;;;21.63;;
1507;SDS011;745;48.586;10.032;2022-12-18T04:54:20;60.70;;;24.80;;
1507;SDS011;745;48.586;10.032;2022-12-18T04:58:50;53.50;;;24.17;;
1507;SDS011;745;48.586;10.032;2022-12-18T05:03:21;72.70;;;27.30;;
1507;SDS011;745;48.586;10.032;2022-12-18T05:07:51;63.77;;;25.60;;
1507;SDS011;745;48.586;10.032;2022-12-18T05:12:23;70.40;;;24.73;;
1507;SDS011;745;48.586;10.032;2022-12-18T05:16:54;59.10;;;25.30;;
1507;SDS011;745;48.586;10.032;2022-12-18T05:21:24;72.23;;;29.57;;
1507;SDS011;745;48.586;10.032;2022-12-18T05:25:56;61.50;;;26.80;;
1507;SDS011;745;48.586;10.032;2022-12-18T05:30:28;66.00;;;27.00;;
1507;SDS011;745;48.586;10.032;2022-12-18T05:34:58;65.40;;;23.23;;
1507;SDS011;745;48.586;10.032;2022-12-18T05:39:28;67.30;;;24.77;;
1507;SDS011;745;48.586;10.032;2022-12-18T05:43:59;62.27;;;24.43;;
1507;SDS011;745;48.586;10.032;2022-12-18T05:48:29;67.17;;;28.47;;
1507;SDS011;745;48.586;10.032;2022-12-18T05:53:00;68.00;;;26.93;;
1507;SDS011;745;48.586;10.032;2022-12-18T05:57:30;70.90;;;27.00;;
1507;SDS011;745;48.586;10.032;2022-12-18T06:02:00;71.80;;;27.20;;
1507;SDS011;745;48.586;10.032;2022-12-18T06:06:31;65.77;;;25.47;;
1507;SDS011;745;48.586;10.032;2022-12-18T06:11:01;67.83;;;26.87;;
1507;SDS011;745;48.586;10.032;2022-12-18T06:15:32;67.63;;;27.87;;
1507;SDS011;745;48.586;10.032;2022-12-18T06:20:03;84.57;;;28.67;;
1507;SDS011;745;48.586;10.032;2022-12-18T06:24:34;65.30;;;26.07;;
1507;SDS011;745;48.586;10.032;2022-12-18T06:29:04;59.10;;;26.17;;
1507;SDS011;745;48.586;10.032;2022-12-18T06:33:35;91.03;;;31.73;;
1507;SDS011;745;48.586;10.032;2022-12-18T06:38:06;144.47;;;48.57;;
1507;SDS011;745;48.586;10.032;2022-12-18T06:42:36;169.63;;;60.80;;
1507;SDS011;745;48.586;10.032;2022-12-18T06:47:06;132.77;;;47.80;;
1507;SDS011;745;48.586;10.032;2022-12-18T06:51:37;109.23;;;40.87;;
1507;SDS011;745;48.586;10.032;2022-12-18T06:56:07;96.13;;;34.70;;
1507;SDS011;745;48.586;10.032;2022-12-18T07:00:37;75.30;;;30.47;;
1507;SDS011;745;48.586;10.032;2022-12-18T07:05:08;79.50;;;32.10;;
1507;SDS011;745;48.586;10.032;2022-12-18T07:09:39;77.47;;;29.00;;
1507;SDS011;745;48.586;10.032;2022-12-18T07:14:09;65.37;;;26.10;;
1507;SDS011;745;48.586;10.032;2022-12-18T07:18:40;67.60;;;26.87;;
1507;SDS011;745;48.586;10.032;2022-12-18T07:23:10;58.57;;;23.17;;
1507;SDS011;745;48.586;10.032;2022-12-18T07:27:41;55.33;;;22.67;;
1507;SDS011;745;48.586;10.032;2022-12-18T07:32:11;59.60;;;22.37;;
1507;SDS011;745;48.586;10.032;2022-12-18T07:36:41;68.70;;;24.60;;
1507;SDS011;745;48.586;10.032;2022-12-18T07:41:12;54.70;;;22.30;;
1507;SDS011;745;48.586;10.032;2022-12-18T07:45:43;51.63;;;21.70;;
1507;SDS011;745;48.586;10.032;2022-12-18T07:50:13;53.30;;;21.17;;
1507;SDS011;745;48.586;10.032;2022-12-18T07:54:44;47.60;;;20.87;;
1507;SDS011;745;48.586;10.032;2022-12-18T07:59:15;49.30;;;21.40;;
1507;SDS011;745;48.586;10.032;2022-12-18T08:03:45;48.67;;;20.70;;
1507;SDS011;745;48.586;10.032;2022-12-18T08:08:15;50.53;;;21.40;;
1507;SDS011;745;48.586;10.032;2022-12-18T08:12:48;44.97;;;20.03;;
1507;SDS011;745;48.586;10.032;2022-12-18T08:17:19;55.53;;;22.93;;
1507;SDS011;745;48.586;10.032;2022-12-18T08:21:50;45.47;;;19.47;;
1507;SDS011;745;48.586;10.032;2022-12-18T08:26:21;45.30;;;19.73;;
1507;SDS011;745;48.586;10.032;2022-12-18T08:30:52;52.13;;;21.30;;
1507;SDS011;745;48.586;10.032;2022-12-18T08:35:22;48.37;;;21.57;;
1507;SDS011;745;48.586;10.032;2022-12-18T08:39:53;49.00;;;23.70;;
1507;SDS011;745;48.586;10.032;2022-12-18T08:44:23;51.27;;;21.40;;
1507;SDS011;745;48.586;10.032;2022-12-18T08:49:10;49.80;;;21.27;;
1507;SDS011;745;48.586;10.032;2022-12-18T08:53:41;50.97;;;22.00;;
1507;SDS011;745;48.586;10.032;2022-12-18T08:58:11;36.63;;;19.40;;
1507;SDS011;745;48.586;10.032;2022-12-18T09:02:42;40.90;;;20.50;;
1507;SDS011;745;48.586;10.032;2022-12-18T09:07:13;45.10;;;19.83;;
1507;SDS011;745;48.586;10.032;2022-12-18T09:11:44;39.87;;;19.20;;
1507;SDS011;745;48.586;10.032;2022-12-18T09:16:14;49.23;;;22.87;;
1507;SDS011;745;48.586;10.032;2022-12-18T09:20:45;45.17;;;18.70;;
1507;SDS011;745;48.586;10.032;2022-12-18T09:25:16;48.60;;;20.67;;
1507;SDS011;745;48.586;10.032;2022-12-18T09:29:46;45.53;;;21.40;;
1507;SDS011;745;48.586;10.032;2022-12-18T09:34:17;58.20;;;24.90;;
1507;SDS011;745;48.586;10.032;2022-12-18T09:38:47;45.53;;;21.60;;
1507;SDS011;745;48.586;10.032;2022-12-18T09:43:33;42.13;;;20.23;;
1507;SDS011;745;48.586;10.032;2022-12-18T09:48:09;53.50;;;22.03;;
1507;SDS011;745;48.586;10.032;2022-12-18T09:52:41;56.83;;;23.07;;
1507;SDS011;745;48.586;10.032;2022-12-18T09:57:15;45.73;;;20.90;;
1507;SDS011;745;48.586;10.032;2022-12-18T10:01:48;38.40;;;19.40;;
1507;SDS011;745;48.586;10.032;2022-12-18T10:10:57;44.87;;;20.80;;
1507;SDS011;745;48.586;10.032;2022-12-18T10:15:39;52.23;;;23.80;;
1507;SDS011;745;48.586;10.032;2022-12-18T10:20:30;53.70;;;22.87;;
1507;SDS011;745;48.586;10.032;2022-12-18T10:25:19;51.13;;;22.70;;
1507;SDS011;745;48.586;10.032;2022-12-18T10:29:53;49.47;;;23.97;;
1507;SDS011;745;48.586;10.032;2022-12-18T10:34:24;53.20;;;23.27;;
1507;SDS011;745;48.586;10.032;2022-12-18T10:38:56;43.63;;;22.17;;
1507;SDS011;745;48.586;10.032;2022-12-18T10:43:44;54.00;;;23.00;;
1507;SDS011;745;48.586;10.032;2022-12-18T10:48:18;45.37;;;27.27;;
1507;SDS011;745;48.586;10.032;2022-12-18T10:52:57;46.83;;;23.83;;
1507;SDS011;745;48.586;10.032;2022-12-18T10:57:29;50.50;;;24.27;;
1507;SDS011;745;48.586;10.032;2022-12-18T11:02:07;53.30;;;23.27;;
1507;SDS011;745;48.586;10.032;2022-12-18T11:11:30;54.23;;;24.23;;
1507;SDS011;745;48.586;10.032;2022-12-18T11:16:01;48.37;;;22.73;;
1507;SDS011;745;48.586;10.032;2022-12-18T11:20:32;50.20;;;23.57;;
1507;SDS011;745;48.586;10.032;2022-12-18T11:25:05;44.77;;;21.10;;
1507;SDS011;745;48.586;10.032;2022-12-18T11:29:38;43.10;;;23.00;;
1507;SDS011;745;48.586;10.032;2022-12-18T11:34:10;50.03;;;21.67;;
1507;SDS011;745;48.586;10.032;2022-12-18T11:38:43;49.67;;;21.80;;
1507;SDS011;745;48.586;10.032;2022-12-18T11:43:20;43.70;;;21.00;;
1507;SDS011;745;48.586;10.032;2022-12-18T11:47:56;53.87;;;24.80;;
1507;SDS011;745;48.586;10.032;2022-12-18T11:52:31;48.57;;;23.00;;
1507;SDS011;745;48.586;10.032;2022-12-18T12:06:13;51.40;;;24.47;;
1507;SDS011;745;48.586;10.032;2022-12-18T12:11:07;41.37;;;20.20;;
1507;SDS011;745;48.586;10.032;2022-12-18T12:40:00;46.37;;;21.60;;
1507;SDS011;745;48.586;10.032;2022-12-18T12:44:37;42.60;;;19.80;;
1507;SDS011;745;48.586;10.032;2022-12-18T12:49:12;37.43;;;18.63;;
1507;SDS011;745;48.586;10.032;2022-12-18T12:53:45;60.23;;;24.80;;
1507;SDS011;745;48.586;10.032;2022-12-18T13:03:13;39.60;;;17.80;;
1507;SDS011;745;48.586;10.032;2022-12-18T13:12:22;46.97;;;22.17;;
1507;SDS011;745;48.586;10.032;2022-12-18T13:21:44;43.10;;;19.77;;
1507;SDS011;745;48.586;10.032;2022-12-18T13:30:56;42.37;;;19.60;;
1507;SDS011;745;48.586;10.032;2022-12-18T13:39:57;39.63;;;19.10;;
1507;SDS011;745;48.586;10.032;2022-12-18T13:44:31;40.43;;;19.10;;
1507;SDS011;745;48.586;10.032;2022-12-18T13:53:43;40.30;;;19.87;;
1507;SDS011;745;48.586;10.032;2022-12-18T13:58:16;41.03;;;19.70;;
1507;SDS011;745;48.586;10.032;2022-12-18T14:02:46;41.07;;;19.50;;
1507;SDS011;745;48.586;10.032;2022-12-18T14:07:17;38.97;;;19.47;;
1507;SDS011;745;48.586;10.032;2022-12-18T14:11:52;34.37;;;16.70;;
1507;SDS011;745;48.586;10.032;2022-12-18T14:16:43;42.07;;;18.30;;
1507;SDS011;745;48.586;10.032;2022-12-18T14:21:21;37.53;;;18.10;;
1507;SDS011;745;48.586;10.032;2022-12-18T14:25:53;41.17;;;19.40;;
1507;SDS011;745;48.586;10.032;2022-12-18T14:30:25;41.90;;;19.53;;
1507;SDS011;745;48.586;10.032;2022-12-18T14:34:56;35.27;;;18.20;;
1507;SDS011;745;48.586;10.032;2022-12-18T14:39:28;38.33;;;18.17;;
1507;SDS011;745;48.586;10.032;2022-12-18T14:44:04;38.30;;;18.20;;
1507;SDS011;745;48.586;10.032;2022-12-18T14:53:06;42.00;;;17.83;;
1507;SDS011;745;48.586;10.032;2022-12-18T14:58:10;41.60;;;19.70;;
1507;SDS011;745;48.586;10.032;2022-12-18T15:02:45;46.27;;;20.27;;
1507;SDS011;745;48.586;10.032;2022-12-18T15:07:18;44.77;;;21.90;;
1507;SDS011;745;48.586;10.032;2022-12-18T15:11:49;49.73;;;22.37;;
1507;SDS011;745;48.586;10.032;2022-12-18T15:16:28;41.37;;;20.30;;
1507;SDS011;745;48.586;10.032;2022-12-18T15:20:59;38.10;;;20.10;;
1507;SDS011;745;48.586;10.032;2022-12-18T15:25:34;48.43;;;18.33;;
1507;SDS011;745;48.586;10.032;2022-12-18T15:34:37;43.90;;;21.30;;
1507;SDS011;745;48.586;10.032;2022-12-18T15:39:10;47.20;;;20.53;;
1507;SDS011;745;48.586;10.032;2022-12-18T15:43:42;46.17;;;20.93;;
1507;SDS011;745;48.586;10.032;2022-12-18T15:48:31;48.80;;;19.30;;
1507;SDS011;745;48.586;10.032;2022-12-18T15:53:04;47.90;;;20.60;;
1507;SDS011;745;48.586;10.032;2022-12-18T15:57:34;47.50;;;21.67;;
1507;SDS011;745;48.586;10.032;2022-12-18T16:02:07;49.50;;;21.40;;
1507;SDS011;745;48.586;10.032;2022-12-18T16:06:47;43.77;;;20.43;;
1507;SDS011;745;48.586;10.032;2022-12-18T16:11:27;49.50;;;19.93;;
1507;SDS011;745;48.586;10.032;2022-12-18T16:16:08;48.67;;;20.50;;
1507;SDS011;745;48.586;10.032;2022-12-18T16:20:38;40.60;;;19.13;;
1507;SDS011;745;48.586;10.032;2022-12-18T16:25:11;44.97;;;19.43;;
1507;SDS011;745;48.586;10.032;2022-12-18T16:29:46;46.73;;;19.70;;
1507;SDS011;745;48.586;10.032;2022-12-18T16:34:20;43.40;;;20.57;;
1507;SDS011;745;48.586;10.032;2022-12-18T16:38:56;47.33;;;21.57;;
1507;SDS011;745;48.586;10.032;2022-12-18T16:43:26;50.23;;;22.40;;
1507;SDS011;745;48.586;10.032;2022-12-18T16:47:57;51.57;;;22.73;;
1507;SDS011;745;48.586;10.032;2022-12-18T16:52:27;50.77;;;22.87;;
1507;SDS011;745;48.586;10.032;2022-12-18T16:56:57;50.93;;;21.00;;
1507;SDS011;745;48.586;10.032;2022-12-18T17:01:30;51.07;;;22.60;;
1507;SDS011;745;48.586;10.032;2022-12-18T17:06:04;52.60;;;22.60;;
1507;SDS011;745;48.586;10.032;2022-12-18T17:10:35;51.17;;;22.07;;
1507;SDS011;745;48.586;10.032;2022-12-18T17:15:06;48.20;;;22.37;;
1507;SDS011;745;48.586;10.032;2022-12-18T17:19:37;41.90;;;20.60;;
1507;SDS011;745;48.586;10.032;2022-12-18T17:24:07;44.50;;;21.40;;
1507;SDS011;745;48.586;10.032;2022-12-18T17:28:39;49.07;;;21.40;;
1507;SDS011;745;48.586;10.032;2022-12-18T17:33:10;51.43;;;22.63;;
1507;SDS011;745;48.586;10.032;2022-12-18T17:37:40;45.23;;;19.53;;
1507;SDS011;745;48.586;10.032;2022-12-18T17:42:10;41.53;;;18.47;;
1507;SDS011;745;48.586;10.032;2022-12-18T17:46:41;46.23;;;20.13;;
1507;SDS011;745;48.586;10.032;2022-12-18T17:51:13;41.97;;;19.20;;
1507;SDS011;745;48.586;10.032;2022-12-18T17:55:52;46.33;;;19.70;;
1507;SDS011;745;48.586;10.032;2022-12-18T18:00:23;42.23;;;20.10;;
1507;SDS011;745;48.586;10.032;2022-12-18T18:04:53;42.60;;;19.57;;
1507;SDS011;745;48.586;10.032;2022-12-18T18:09:24;45.20;;;19.57;;
1507;SDS011;745;48.586;10.032;2022-12-18T18:13:54;42.50;;;19.97;;
1507;SDS011;745;48.586;10.032;2022-12-18T18:18:31;46.23;;;21.87;;
1507;SDS011;745;48.586;10.032;2022-12-18T18:23:01;49.20;;;22.03;;
1507;SDS011;745;48.586;10.032;2022-12-18T18:27:32;55.93;;;25.30;;
1507;SDS011;745;48.586;10.032;2022-12-18T18:32:02;49.33;;;20.97;;
1507;SDS011;745;48.586;10.032;2022-12-18T18:36:32;45.83;;;21.70;;
1507;SDS011;745;48.586;10.032;2022-12-18T18:41:03;45.20;;;20.70;;
1507;SDS011;745;48.586;10.032;2022-12-18T18:45:34;46.17;;;20.10;;
1507;SDS011;745;48.586;10.032;2022-12-18T18:50:05;51.33;;;20.43;;
1507;SDS011;745;48.586;10.032;2022-12-18T18:54:36;53.07;;;21.20;;
1507;SDS011;745;48.586;10.032;2022-12-18T18:59:06;53.50;;;20.87;;
1507;SDS011;745;48.586;10.032;2022-12-18T19:03:36;56.43;;;24.00;;
1507;SDS011;745;48.586;10.032;2022-12-18T19:08:07;43.83;;;20.73;;
1507;SDS011;745;48.586;10.032;2022-12-18T19:12:37;54.97;;;21.60;;
1507;SDS011;745;48.586;10.032;2022-12-18T19:17:26;50.83;;;22.50;;
1507;SDS011;745;48.586;10.032;2022-12-18T19:21:57;45.63;;;22.03;;
1507;SDS011;745;48.586;10.032;2022-12-18T19:26:27;43.87;;;20.30;;
1507;SDS011;745;48.586;10.032;2022-12-18T19:30:59;52.60;;;22.20;;
1507;SDS011;745;48.586;10.032;2022-12-18T19:35:30;50.50;;;21.17;;
1507;SDS011;745;48.586;10.032;2022-12-18T19:40:01;58.33;;;24.60;;
1507;SDS011;745;48.586;10.032;2022-12-18T19:44:31;52.40;;;21.80;;
1507;SDS011;745;48.586;10.032;2022-12-18T19:49:02;53.13;;;23.80;;
1507;SDS011;745;48.586;10.032;2022-12-18T19:53:33;53.27;;;23.87;;
1507;SDS011;745;48.586;10.032;2022-12-18T19:58:03;60.90;;;25.37;;
1507;SDS011;745;48.586;10.032;2022-12-18T20:02:33;60.20;;;26.00;;
1507;SDS011;745;48.586;10.032;2022-12-18T20:07:05;58.23;;;22.00;;
1507;SDS011;745;48.586;10.032;2022-12-18T20:11:35;55.13;;;22.83;;
1507;SDS011;745;48.586;10.032;2022-12-18T20:16:06;60.87;;;25.33;;
1507;SDS011;745;48.586;10.032;2022-12-18T20:20:36;55.73;;;24.37;;
1507;SDS011;745;48.586;10.032;2022-12-18T20:25:07;58.27;;;22.00;;
1507;SDS011;745;48.586;10.032;2022-12-18T20:29:37;54.00;;;21.47;;
1507;SDS011;745;48.586;10.032;2022-12-18T20:34:08;49.97;;;21.73;;
1507;SDS011;745;48.586;10.032;2022-12-18T20:38:38;53.00;;;22.53;;
1507;SDS011;745;48.586;10.032;2022-12-18T20:43:09;61.17;;;24.47;;
1507;SDS011;745;48.586;10.032;2022-12-18T20:47:39;47.70;;;23.70;;
1507;SDS011;745;48.586;10.032;2022-12-18T20:52:09;76.13;;;30.17;;
1507;SDS011;745;48.586;10.032;2022-12-18T20:56:40;63.00;;;28.17;;
1507;SDS011;745;48.586;10.032;2022-12-18T21:01:15;58.77;;;24.50;;
1507;SDS011;745;48.586;10.032;2022-12-18T21:05:47;58.30;;;26.97;;
1507;SDS011;745;48.586;10.032;2022-12-18T21:10:17;73.23;;;27.57;;
1507;SDS011;745;48.586;10.032;2022-12-18T21:14:47;65.67;;;26.90;;
1507;SDS011;745;48.586;10.032;2022-12-18T21:19:19;70.97;;;25.27;;
1507;SDS011;745;48.586;10.032;2022-12-18T21:23:53;60.00;;;25.17;;
1507;SDS011;745;48.586;10.032;2022-12-18T21:28:24;56.80;;;23.93;;
1507;SDS011;745;48.586;10.032;2022-12-18T21:32:54;56.97;;;23.27;;
1507;SDS011;745;48.586;10.032;2022-12-18T21:37:24;56.93;;;23.33;;
1507;SDS011;745;48.586;10.032;2022-12-18T21:41:55;56.00;;;24.87;;
1507;SDS011;745;48.586;10.032;2022-12-18T21:46:45;57.37;;;22.50;;
1507;SDS011;745;48.586;10.032;2022-12-18T21:51:17;59.30;;;22.60;;
1507;SDS011;745;48.586;10.032;2022-12-18T21:55:55;56.90;;;21.90;;
1507;SDS011;745;48.586;10.032;2022-12-18T22:00:27;46.43;;;20.80;;
1507;SDS011;745;48.586;10.032;2022-12-18T22:04:57;49.17;;;21.17;;
1507;SDS011;745;48.586;10.032;2022-12-18T22:09:27;43.87;;;20.40;;
1507;SDS011;745;48.586;10.032;2022-12-18T22:13:58;53.13;;;23.37;;
1507;SDS011;745;48.586;10.032;2022-12-18T22:18:28;48.70;;;22.27;;
1507;SDS011;745;48.586;10.032;2022-12-18T22:22:58;54.17;;;23.30;;
1507;SDS011;745;48.586;10.032;2022-12-18T22:27:29;48.37;;;21.07;;
1507;SDS011;745;48.586;10.032;2022-12-18T22:31:59;46.73;;;20.90;;
1507;SDS011;745;48.586;10.032;2022-12-18T22:36:37;52.53;;;22.03;;
1507;SDS011;745;48.586;10.032;2022-12-18T22:41:08;59.13;;;24.13;;
1507;SDS011;745;48.586;10.032;2022-12-18T22:45:38;54.40;;;23.17;;
1507;SDS011;745;48.586;10.032;2022-12-18T22:50:11;58.20;;;24.43;;
1507;SDS011;745;48.586;10.032;2022-12-18T22:54:42;45.73;;;21.33;;
1507;SDS011;745;48.586;10.032;2022-12-18T22:59:16;48.70;;;20.87;;
1507;SDS011;745;48.586;10.032;2022-12-18T23:03:48;45.27;;;22.30;;
1507;SDS011;745;48.586;10.032;2022-12-18T23:08:18;49.37;;;22.33;;
1507;SDS011;745;48.586;10.032;2022-12-18T23:12:49;58.43;;;23.93;;
1507;SDS011;745;48.586;10.032;2022-12-18T23:17:19;47.53;;;22.67;;
1507;SDS011;745;48.586;10.032;2022-12-18T23:21:50;42.97;;;20.13;;
1507;SDS011;745;48.586;10.032;2022-12-18T23:26:21;52.13;;;21.80;;
1507;SDS011;745;48.586;10.032;2022-12-18T23:30:53;49.93;;;19.33;;
1507;SDS011;745;48.586;10.032;2022-12-18T23:35:23;51.57;;;20.20;;
1507;SDS011;745;48.586;10.032;2022-12-18T23:39:53;41.37;;;21.17;;
1507;SDS011;745;48.586;10.032;2022-12-18T23:44:25;44.70;;;20.50;;
1507;SDS011;745;48.586;10.032;2022-12-18T23:48:55;53.00;;;21.70;;
1507;SDS011;745;48.586;10.032;2022-12-18T23:53:27;43.30;;;19.53;;
1507;SDS011;745;48.586;10.032;2022-12-18T23:57:57;53.07;;;22.13;;
